Time;durP1;ratioP1;P1;durP2;ratioP2;P2;SDS_P1;SDS_P2;PMS_P1;PMS_P2;Temp;Humidity;BMP_temperature;BMP_pressure;BME280_temperature;BME280_humidity;BME280_pressure;Samples;Min_cycle;Max_cycle;Signal;HPM_P1;HPM_P2
2023/05/19 00:00:29;;;;;;;0.50;0.50;;;;;;;13.98;100.00;99422.28;5051384;28;20214;-63
2023/05/19 00:02:56;;;;;;;0.47;0.47;;;;;;;13.96;100.00;99418.91;5051560;28;20202;-63
2023/05/19 00:05:23;;;;;;;0.40;0.40;;;;;;;13.97;100.00;99418.88;5052154;28;20643;-63
2023/05/19 00:07:52;;;;;;;0.50;0.50;;;;;;;13.95;100.00;99417.25;5051751;28;20204;-63
2023/05/19 00:10:21;;;;;;;0.50;0.50;;;;;;;13.95;100.00;99422.41;5051152;28;20208;-62
2023/05/19 00:12:48;;;;;;;0.60;0.60;;;;;;;13.96;100.00;99419.75;5050114;28;20665;-62
2023/05/19 00:15:15;;;;;;;0.50;0.50;;;;;;;13.92;100.00;99410.50;5050171;28;20204;-62
2023/05/19 00:17:42;;;;;;;0.57;0.57;;;;;;;13.91;100.00;99410.56;5051873;28;20719;-62
2023/05/19 00:20:11;;;;;;;0.50;0.50;;;;;;;13.94;100.00;99413.84;5050368;28;20296;-62
2023/05/19 00:22:38;;;;;;;0.80;0.80;;;;;;;13.96;100.00;99424.06;5051501;28;20214;-63
2023/05/19 00:25:07;;;;;;;0.60;0.60;;;;;;;13.98;100.00;99415.38;5051391;28;20199;-62
2023/05/19 00:27:35;;;;;;;0.47;0.47;;;;;;;14.02;100.00;99413.53;5046839;28;20290;-63
2023/05/19 00:30:01;;;;;;;0.50;0.50;;;;;;;14.02;100.00;99418.69;5050474;28;20201;-62
2023/05/19 00:32:28;;;;;;;0.40;0.40;;;;;;;14.04;100.00;99406.53;5050151;28;20209;-62
2023/05/19 00:34:57;;;;;;;0.40;0.40;;;;;;;14.07;100.00;99406.41;5051418;28;20209;-63
2023/05/19 00:37:24;;;;;;;0.40;0.40;;;;;;;13.11;100.00;99242.34;5051225;28;20262;-64
2023/05/19 00:39:50;;;;;;;0.47;0.47;;;;;;;14.11;100.00;99410.53;5051512;28;20262;-64
2023/05/19 00:42:17;;;;;;;0.37;0.37;;;;;;;14.08;100.00;99405.50;5050923;28;20269;-62
2023/05/19 00:44:45;;;;;;;0.53;0.53;;;;;;;14.09;100.00;99412.31;5051336;28;20255;-63
2023/05/19 00:47:12;;;;;;;0.50;0.50;;;;;;;14.14;100.00;99407.81;5050531;28;20668;-63
2023/05/19 00:49:39;;;;;;;0.40;0.40;;;;;;;14.13;100.00;99411.28;5050054;28;20264;-62
2023/05/19 00:52:07;;;;;;;0.60;0.60;;;;;;;14.14;100.00;99407.81;5049519;28;20216;-63
2023/05/19 00:54:34;;;;;;;0.43;0.43;;;;;;;14.15;100.00;99406.91;5050762;28;20721;-63
2023/05/19 00:57:01;;;;;;;0.50;0.50;;;;;;;14.05;100.00;99382.44;5050836;28;20197;-63
2023/05/19 00:59:28;;;;;;;0.50;0.50;;;;;;;14.16;100.00;99395.69;5048759;28;20209;-62
2023/05/19 01:01:56;;;;;;;0.40;0.40;;;;;;;14.09;100.00;99374.50;5050417;28;20668;-63
2023/05/19 01:04:24;;;;;;;0.40;0.40;;;;;;;14.09;100.00;99382.22;5050221;28;20259;-63
2023/05/19 01:06:53;;;;;;;0.60;0.60;;;;;;;14.10;100.00;99391.66;5051258;28;20207;-63
2023/05/19 01:09:21;;;;;;;0.50;0.50;;;;;;;14.11;100.00;99398.47;5050336;28;20203;-63
2023/05/19 01:11:47;;;;;;;0.40;0.40;;;;;;;14.01;100.00;99378.31;5050505;28;20201;-62
2023/05/19 01:14:15;;;;;;;0.40;0.40;;;;;;;14.07;100.00;99394.34;5050305;28;20204;-63
2023/05/19 01:16:50;;;;;;;0.40;0.40;;;;;;;14.06;100.00;99400.41;5050387;28;20278;-64
2023/05/19 01:19:37;;;;;;;0.40;0.40;;;;;;;14.05;100.00;99397.91;5047384;28;20592;-62
2023/05/19 01:22:21;;;;;;;0.40;0.40;;;;;;;14.01;100.00;99397.22;5049616;28;20768;-63
2023/05/19 01:25:33;;;;;;;0.50;0.50;;;;;;;13.98;100.00;99393.94;5050751;28;20214;-63
2023/05/19 01:28:23;;;;;;;0.50;0.50;;;;;;;13.97;100.00;99398.25;5050010;28;20728;-62
2023/05/19 01:30:54;;;;;;;0.50;0.50;;;;;;;13.95;100.00;99400.06;5006030;28;20664;-62
2023/05/19 01:33:23;;;;;;;0.50;0.50;;;;;;;13.97;100.00;99399.97;5050051;28;20738;-63
2023/05/19 01:35:51;;;;;;;0.40;0.40;;;;;;;13.94;100.00;99407.84;5050279;28;20197;-62
2023/05/19 01:38:20;;;;;;;0.50;0.50;;;;;;;13.88;100.00;99396.06;5049740;28;20197;-64
2023/05/19 01:40:49;;;;;;;0.40;0.40;;;;;;;13.92;100.00;99404.50;5032235;28;20217;-63
2023/05/19 01:43:18;;;;;;;0.40;0.40;;;;;;;13.82;100.00;99395.50;5049025;28;20208;-63
2023/05/19 01:45:46;;;;;;;1.17;1.17;;;;;;;13.86;100.00;99405.59;5049734;28;20266;-62
2023/05/19 01:48:15;;;;;;;0.50;0.50;;;;;;;13.83;100.00;99408.31;5049561;28;20266;-63
2023/05/19 01:50:41;;;;;;;0.40;0.40;;;;;;;13.84;100.00;99406.56;5049359;28;20196;-63
2023/05/19 01:53:08;;;;;;;0.40;0.40;;;;;;;13.81;100.00;99409.28;5049564;28;20238;-62
2023/05/19 01:55:36;;;;;;;0.40;0.40;;;;;;;13.79;100.00;99408.53;5050016;28;20334;-62
2023/05/19 01:58:10;;;;;;;0.40;0.40;;;;;;;13.77;100.00;99402.56;5049960;28;20633;-63
2023/05/19 02:00:51;;;;;;;0.30;0.30;;;;;;;13.73;100.00;99401.06;5048350;28;20300;-62
2023/05/19 02:03:30;;;;;;;0.50;0.50;;;;;;;13.74;100.00;99413.00;5049295;28;20204;-62
2023/05/19 02:06:06;;;;;;;0.40;0.40;;;;;;;13.73;100.00;99417.34;5049678;28;20248;-62
2023/05/19 02:08:41;;;;;;;0.50;0.50;;;;;;;13.73;100.00;99416.50;5048347;28;20630;-63
2023/05/19 02:11:15;;;;;;;0.40;0.40;;;;;;;13.70;100.00;99416.66;5047228;28;20200;-62
2023/05/19 02:13:44;;;;;;;0.43;0.43;;;;;;;13.68;100.00;99419.28;5049516;28;20208;-63
2023/05/19 02:16:13;;;;;;;0.40;0.40;;;;;;;13.63;100.00;99416.88;5048879;28;20218;-63
2023/05/19 02:18:44;;;;;;;0.37;0.37;;;;;;;13.63;100.00;99416.88;5048478;28;20197;-64
2023/05/19 02:21:12;;;;;;;0.40;0.40;;;;;;;13.64;100.00;99416.00;5048777;28;20231;-63
2023/05/19 02:23:39;;;;;;;0.30;0.30;;;;;;;13.51;100.00;99401.09;5048876;28;20205;-63
2023/05/19 02:26:07;;;;;;;0.60;0.60;;;;;;;13.60;100.00;99417.00;5049382;28;20231;-60
2023/05/19 02:28:34;;;;;;;0.47;0.47;;;;;;;13.52;100.00;99402.78;5049282;28;20323;-61
2023/05/19 02:31:01;;;;;;;1.03;0.60;;;;;;;13.60;100.00;99422.16;5049792;28;20750;-63
2023/05/19 02:33:29;;;;;;;0.40;0.40;;;;;;;13.64;100.00;99416.00;5047830;28;20239;-63
2023/05/19 02:35:57;;;;;;;0.70;0.70;;;;;;;13.62;100.00;99424.69;5049277;28;20193;-63
2023/05/19 02:38:24;;;;;;;0.50;0.50;;;;;;;13.60;100.00;99422.16;5048926;28;20246;-64
2023/05/19 02:40:51;;;;;;;0.93;0.77;;;;;;;13.63;100.00;99422.03;5048980;28;20223;-62
2023/05/19 02:43:18;;;;;;;0.40;0.40;;;;;;;13.56;100.00;99410.34;5049133;28;20664;-64
2023/05/19 02:45:45;;;;;;;0.40;0.40;;;;;;;13.59;100.00;99420.50;5048930;28;20255;-63
2023/05/19 02:48:12;;;;;;;0.43;0.43;;;;;;;13.56;100.00;99423.22;5049348;28;20200;-63
2023/05/19 02:50:39;;;;;;;0.43;0.43;;;;;;;13.50;100.00;99415.75;5048319;28;20631;-64
2023/05/19 02:53:07;;;;;;;0.47;0.47;;;;;;;13.55;100.00;99413.81;5048000;28;20287;-63
2023/05/19 02:55:34;;;;;;;0.40;0.40;;;;;;;13.51;100.00;99422.56;5049292;28;20200;-62
2023/05/19 02:58:01;;;;;;;0.53;0.53;;;;;;;13.48;100.00;99427.84;5048367;28;20259;-62
2023/05/19 03:00:27;;;;;;;0.50;0.50;;;;;;;13.46;100.00;99421.91;5046327;28;20270;-61
2023/05/19 03:02:54;;;;;;;0.50;0.50;;;;;;;13.45;100.00;99422.81;5048896;28;20398;-62
2023/05/19 03:05:21;;;;;;;0.70;0.70;;;;;;;13.41;100.00;99423.84;5049533;28;20209;-62
2023/05/19 03:07:49;;;;;;;0.47;0.47;;;;;;;13.47;100.00;99431.31;5048799;28;20723;-62
2023/05/19 03:10:17;;;;;;;0.40;0.40;;;;;;;13.47;100.00;99431.31;5048118;28;20201;-62
2023/05/19 03:12:44;;;;;;;0.50;0.50;;;;;;;13.41;100.00;99421.25;5051895;28;20250;-62
2023/05/19 03:15:13;;;;;;;0.67;0.67;;;;;;;13.45;100.00;99433.13;5052541;28;20649;-61
2023/05/19 03:17:40;;;;;;;0.57;0.57;;;;;;;13.48;100.00;99438.13;5052831;28;20326;-62
2023/05/19 03:20:09;;;;;;;0.50;0.50;;;;;;;13.44;100.00;99436.56;5051785;28;20209;-62
2023/05/19 03:22:36;;;;;;;0.50;0.50;;;;;;;13.47;100.00;99439.03;5049631;28;20672;-62
2023/05/19 03:25:03;;;;;;;0.43;0.43;;;;;;;13.48;100.00;99438.13;5052196;28;20207;-61
2023/05/19 03:27:31;;;;;;;1.03;1.03;;;;;;;13.46;100.00;99436.53;5051466;28;20224;-62
2023/05/19 03:29:58;;;;;;;0.40;0.40;;;;;;;13.48;100.00;99447.59;5052376;28;20205;-62
2023/05/19 03:32:25;;;;;;;0.40;0.40;;;;;;;13.39;100.00;99430.78;5052461;28;20714;-62
2023/05/19 03:34:52;;;;;;;0.70;0.70;;;;;;;13.47;100.00;99441.59;5052125;28;20208;-61
2023/05/19 03:37:19;;;;;;;0.60;0.60;;;;;;;13.47;100.00;99441.59;5052312;28;20205;-63
2023/05/19 03:39:45;;;;;;;0.40;0.40;;;;;;;13.48;100.00;99451.00;5052264;28;20607;-62
2023/05/19 03:42:12;;;;;;;0.47;0.47;;;;;;;13.50;100.00;99453.53;5051045;28;20746;-61
2023/05/19 03:44:40;;;;;;;0.40;0.40;;;;;;;13.50;100.00;99456.97;5051386;28;20254;-62
2023/05/19 03:47:07;;;;;;;0.80;0.80;;;;;;;13.51;100.00;99458.59;5051761;28;20774;-62
2023/05/19 03:49:34;;;;;;;1.30;1.30;;;;;;;13.55;100.00;99451.59;5051701;28;20201;-61
2023/05/19 03:52:02;;;;;;;0.53;0.53;;;;;;;13.56;100.00;99455.84;5052266;28;20660;-61
2023/05/19 03:54:28;;;;;;;0.50;0.50;;;;;;;13.58;100.00;99452.31;5050066;28;20308;-62
2023/05/19 03:56:55;;;;;;;0.50;0.50;;;;;;;13.59;100.00;99454.00;5048128;28;20217;-62
2023/05/19 03:59:22;;;;;;;0.63;0.63;;;;;;;13.58;100.00;99454.88;5051989;28;20669;-62
2023/05/19 04:01:51;;;;;;;0.40;0.40;;;;;;;13.62;100.00;99456.44;5051216;28;20255;-62
2023/05/19 04:04:18;;;;;;;0.57;0.57;;;;;;;13.65;100.00;99456.31;5052182;28;20216;-62
2023/05/19 04:06:45;;;;;;;0.50;0.50;;;;;;;13.65;100.00;99460.63;5052395;28;20208;-63
2023/05/19 04:09:13;;;;;;;0.40;0.40;;;;;;;13.66;100.00;99463.16;5051079;28;20204;-61
2023/05/19 04:11:40;;;;;;;0.70;0.70;;;;;;;13.68;100.00;99458.75;5052200;28;20200;-62
2023/05/19 04:14:07;;;;;;;0.67;0.67;;;;;;;13.73;100.00;99468.88;5050862;28;20291;-63
2023/05/19 04:16:34;;;;;;;0.40;0.40;;;;;;;13.79;100.00;99473.78;5051225;28;20262;-62
2023/05/19 04:19:02;;;;;;;0.50;0.50;;;;;;;13.80;100.00;99479.75;5051179;28;20201;-63
2023/05/19 04:21:28;;;;;;;0.50;0.50;;;;;;;13.80;100.00;99480.59;5050645;28;20606;-62
2023/05/19 04:23:56;;;;;;;0.40;0.40;;;;;;;13.85;100.00;99477.81;5050219;28;20242;-62
2023/05/19 04:26:25;;;;;;;0.40;0.40;;;;;;;13.85;100.00;99473.50;5049341;28;20215;-62
2023/05/19 04:28:52;;;;;;;0.53;0.53;;;;;;;13.85;100.00;99468.34;5052465;28;20229;-62
2023/05/19 04:31:20;;;;;;;0.80;0.80;;;;;;;13.87;100.00;99468.28;5050974;28;20635;-62
2023/05/19 04:33:48;;;;;;;0.40;0.40;;;;;;;13.97;100.00;99461.84;5051364;28;20201;-62
2023/05/19 04:36:20;;;;;;;0.60;0.60;;;;;;;14.17;100.00;99448.94;5043622;28;20250;-63
2023/05/19 04:38:47;;;;;;;0.53;0.53;;;;;;;14.40;100.00;99461.69;5050040;28;20603;-62
2023/05/19 04:41:15;;;;;;;0.50;0.50;;;;;;;14.59;100.00;99452.19;5050537;28;20218;-62
2023/05/19 04:43:43;;;;;;;0.50;0.50;;;;;;;14.81;100.00;99462.38;5050907;28;20219;-62
2023/05/19 04:46:11;;;;;;;0.47;0.47;;;;;;;14.86;100.00;99480.22;5050233;28;20223;-62
2023/05/19 04:48:38;;;;;;;0.60;0.60;;;;;;;14.85;100.00;99470.81;5050228;28;20208;-62
2023/05/19 04:51:06;;;;;;;0.40;0.40;;;;;;;14.92;100.00;99482.53;5049882;28;20208;-62
2023/05/19 04:53:34;;;;;;;0.40;0.40;;;;;;;15.00;100.00;99483.00;5051177;28;20557;-65
2023/05/19 04:56:02;;;;;;;0.50;0.50;;;;;;;15.17;100.00;99488.22;5050715;28;20210;-62
2023/05/19 04:58:29;;;;;;;0.40;0.40;;;;;;;15.21;100.00;99476.84;5048168;28;20207;-62
2023/05/19 05:00:56;;;;;;;0.40;0.40;;;;;;;15.45;100.00;99496.31;5049589;28;20230;-62
2023/05/19 05:03:23;;;;;;;0.50;0.50;;;;;;;15.68;100.00;99503.81;5049850;28;20197;-62
2023/05/19 05:05:50;;;;;;;0.77;0.77;;;;;;;15.92;100.00;99506.09;5049662;28;20683;-62
2023/05/19 05:08:21;;;;;;;0.83;0.83;;;;;;;16.08;100.00;99507.00;5045923;28;20204;-63
2023/05/19 05:10:51;;;;;;;0.53;0.53;;;;;;;16.24;100.00;99515.63;5046349;28;20204;-63
2023/05/19 05:13:18;;;;;;;0.23;0.23;;;;;;;16.41;100.00;99515.63;5049815;28;20648;-61
2023/05/19 05:15:46;;;;;;;0.50;0.50;;;;;;;16.47;100.00;99499.75;5048992;28;20196;-63
2023/05/19 05:18:13;;;;;;;0.50;0.50;;;;;;;16.64;100.00;99517.84;5049744;28;20204;-61
2023/05/19 05:20:41;;;;;;;0.80;0.80;;;;;;;16.85;100.00;99523.63;5048641;28;20224;-63
2023/05/19 05:23:09;;;;;;;0.60;0.60;;;;;;;16.95;100.00;99526.56;5049661;28;20270;-76
2023/05/19 05:25:36;;;;;;;0.43;0.43;;;;;;;17.06;100.00;99525.06;5050479;28;20655;-63
2023/05/19 05:28:05;;;;;;;0.50;0.50;;;;;;;17.17;100.00;99527.06;5049667;28;20267;-63
2023/05/19 05:30:33;;;;;;;0.40;0.40;;;;;;;17.31;100.00;99524.56;5049209;28;20193;-63
2023/05/19 05:33:01;;;;;;;0.57;0.57;;;;;;;17.39;100.00;99526.69;5047992;28;20207;-62
2023/05/19 05:35:28;;;;;;;0.53;0.53;;;;;;;17.55;100.00;99532.69;5049496;28;20258;-63
2023/05/19 05:37:54;;;;;;;0.50;0.50;;;;;;;17.69;100.00;99531.03;5048340;28;20205;-63
2023/05/19 05:40:21;;;;;;;0.50;0.50;;;;;;;17.96;100.00;99535.56;5050045;28;20243;-63
2023/05/19 05:42:48;;;;;;;0.60;0.60;;;;;;;18.04;100.00;99535.94;5049148;28;20264;-62
2023/05/19 05:45:16;;;;;;;0.60;0.60;;;;;;;18.19;100.00;99541.06;5049133;28;20210;-63
2023/05/19 05:47:43;;;;;;;0.40;0.40;;;;;;;18.35;100.00;99543.63;5050179;28;20284;-63
2023/05/19 05:50:11;;;;;;;0.50;0.50;;;;;;;18.53;99.83;99546.88;5048556;28;20253;-63
2023/05/19 05:52:39;;;;;;;0.63;0.63;;;;;;;18.75;100.00;99540.28;5046955;28;20635;-63
2023/05/19 05:55:07;;;;;;;0.53;0.53;;;;;;;18.99;100.00;99534.50;5049282;28;20268;-63
2023/05/19 05:57:35;;;;;;;0.53;0.53;;;;;;;19.22;99.52;99546.91;5049323;28;20237;-63
2023/05/19 06:00:04;;;;;;;0.50;0.50;;;;;;;19.31;97.01;99548.91;5046676;28;20205;-62
2023/05/19 06:02:32;;;;;;;0.40;0.40;;;;;;;19.41;96.73;99555.25;5050064;28;20226;-63
2023/05/19 06:04:59;;;;;;;0.50;0.50;;;;;;;19.54;97.65;99556.13;5050398;28;20682;-63
2023/05/19 06:07:26;;;;;;;0.70;0.70;;;;;;;19.68;94.27;99566.44;5049404;28;20217;-64
2023/05/19 06:09:52;;;;;;;0.50;0.50;;;;;;;19.89;96.63;99565.06;5047734;28;20212;-63
2023/05/19 06:12:19;;;;;;;0.60;0.60;;;;;;;19.96;95.17;99575.06;5047844;28;20342;-62
2023/05/19 06:14:46;;;;;;;0.60;0.60;;;;;;;20.07;92.83;99575.19;5048884;28;20207;-63
2023/05/19 06:17:13;;;;;;;1.03;0.60;;;;;;;20.21;95.89;99578.56;5049156;28;20692;-63
2023/05/19 06:19:41;;;;;;;0.57;0.57;;;;;;;20.35;91.65;99588.09;5047286;28;20634;-63
2023/05/19 06:22:07;;;;;;;0.40;0.40;;;;;;;20.46;91.76;99585.56;5048975;28;20319;-63
2023/05/19 06:24:34;;;;;;;0.50;0.50;;;;;;;20.52;92.75;99581.75;5046196;28;20205;-63
2023/05/19 06:27:01;;;;;;;0.50;0.50;;;;;;;20.46;92.34;99585.56;5049585;28;20225;-63
2023/05/19 06:29:27;;;;;;;0.50;0.50;;;;;;;20.54;93.56;99585.91;5046939;28;20203;-63
2023/05/19 06:31:54;;;;;;;0.50;0.50;;;;;;;20.76;92.04;99585.25;5048915;28;20278;-63
2023/05/19 06:34:21;;;;;;;0.40;0.40;;;;;;;20.99;90.55;99591.47;5048249;28;20220;-63
2023/05/19 06:36:49;;;;;;;0.47;0.47;;;;;;;21.05;89.27;99591.06;5048678;28;20204;-63
2023/05/19 06:39:15;;;;;;;0.43;0.43;;;;;;;21.04;88.72;99581.56;5047206;28;20212;-64
2023/05/19 06:41:42;;;;;;;0.40;0.40;;;;;;;21.12;89.73;99593.16;5047405;28;20220;-63
2023/05/19 06:44:09;;;;;;;0.40;0.40;;;;;;;21.06;88.36;99596.16;5048038;28;20296;-66
2023/05/19 06:46:36;;;;;;;0.60;0.60;;;;;;;21.16;88.79;99593.78;5049140;28;20205;-62
2023/05/19 06:49:02;;;;;;;0.40;0.40;;;;;;;21.43;87.63;99597.03;5054004;28;20200;-63
2023/05/19 06:51:30;;;;;;;0.43;0.43;;;;;;;21.70;87.87;99599.44;5053206;28;20209;-63
2023/05/19 06:53:58;;;;;;;0.50;0.50;;;;;;;21.85;85.82;99598.31;5053478;28;20213;-63
2023/05/19 06:56:25;;;;;;;0.40;0.40;;;;;;;21.79;84.75;99604.81;5053024;28;20196;-63
2023/05/19 06:58:51;;;;;;;0.60;0.60;;;;;;;21.75;87.52;99592.91;5054046;28;20673;-63
2023/05/19 07:01:18;;;;;;;0.50;0.50;;;;;;;21.78;87.98;99597.06;5051508;28;20236;-63
2023/05/19 07:03:45;;;;;;;0.37;0.37;;;;;;;21.58;84.25;99598.56;5051749;28;20212;-63
2023/05/19 07:06:12;;;;;;;0.37;0.37;;;;;;;21.52;86.66;99591.13;5054054;28;20231;-63
2023/05/19 07:08:39;;;;;;;0.50;0.50;;;;;;;21.46;86.80;99587.19;5052803;28;20613;-63
2023/05/19 07:11:07;;;;;;;0.50;0.50;;;;;;;21.31;86.44;99587.47;5052056;28;20246;-63
2023/05/19 07:13:33;;;;;;;0.50;0.50;;;;;;;21.48;87.43;99579.28;5052867;28;20655;-63
2023/05/19 07:16:00;;;;;;;0.40;0.40;;;;;;;21.65;87.36;99581.47;5050764;28;20200;-64
2023/05/19 07:18:30;;;;;;;0.63;0.63;;;;;;;21.65;85.88;99586.69;5053512;28;20645;-63
2023/05/19 07:20:57;;;;;;;0.67;0.67;;;;;;;21.80;87.56;99580.38;5052774;28;20228;-63
2023/05/19 07:23:24;;;;;;;0.47;0.47;;;;;;;22.02;87.10;99584.03;5050305;28;20200;-64
2023/05/19 07:25:54;;;;;;;0.40;0.40;;;;;;;22.05;84.52;99587.25;5047791;28;20259;-63
2023/05/19 07:28:23;;;;;;;0.50;0.50;;;;;;;21.95;86.21;99568.00;5048817;28;20229;-63
2023/05/19 07:30:50;;;;;;;0.67;0.67;;;;;;;22.19;86.18;99588.84;5051850;28;20707;-63
2023/05/19 07:33:17;;;;;;;0.37;0.37;;;;;;;22.23;82.04;99598.13;5049494;28;20303;-63
2023/05/19 07:35:44;;;;;;;0.50;0.50;;;;;;;22.24;83.39;99584.09;5052650;28;20200;-63
2023/05/19 07:38:11;;;;;;;0.67;0.67;;;;;;;22.29;82.70;99590.66;5050070;28;20209;-63
2023/05/19 07:40:38;;;;;;;0.60;0.60;;;;;;;22.48;86.54;99582.25;5050779;28;21242;-63
2023/05/19 07:43:05;;;;;;;0.40;0.40;;;;;;;22.81;85.78;99584.91;5050145;28;20224;-63
2023/05/19 07:45:33;;;;;;;0.50;0.50;;;;;;;23.04;86.39;99580.50;5050741;28;20577;-64
2023/05/19 07:47:59;;;;;;;0.50;0.50;;;;;;;23.11;80.27;99580.84;5048896;28;20240;-64
2023/05/19 07:50:26;;;;;;;0.50;0.50;;;;;;;23.25;81.34;99585.84;5050773;28;20216;-63
2023/05/19 07:52:53;;;;;;;0.30;0.30;;;;;;;23.29;79.05;99592.50;5051622;28;20251;-64
2023/05/19 07:55:21;;;;;;;0.30;0.30;;;;;;;23.37;78.72;99574.38;5050019;28;20255;-63
2023/05/19 07:57:48;;;;;;;0.60;0.60;;;;;;;23.63;82.41;99578.41;5050817;28;20650;-63
2023/05/19 08:00:16;;;;;;;0.30;0.30;;;;;;;23.82;78.61;99593.44;5051326;28;20626;-63
2023/05/19 08:02:45;;;;;;;0.40;0.40;;;;;;;23.81;76.68;99594.41;5050824;28;20294;-64
2023/05/19 08:05:12;;;;;;;0.30;0.30;;;;;;;23.60;75.22;99594.34;5049606;28;20205;-64
2023/05/19 08:07:38;;;;;;;0.40;0.40;;;;;;;23.65;75.17;99602.66;5050337;28;20201;-65
2023/05/19 08:10:06;;;;;;;0.50;0.50;;;;;;;23.69;73.68;99604.06;5052871;28;20209;-64
2023/05/19 08:12:35;;;;;;;0.37;0.37;;;;;;;23.73;75.90;99608.13;5050744;28;20192;-64
2023/05/19 08:15:02;;;;;;;0.70;0.70;;;;;;;23.67;77.77;99598.13;5051183;28;20671;-64
2023/05/19 08:17:28;;;;;;;0.50;0.50;;;;;;;23.74;76.47;99601.94;5052275;28;20213;-63
2023/05/19 08:19:56;;;;;;;0.83;0.83;;;;;;;23.72;73.59;99619.53;5049514;28;20266;-63
2023/05/19 08:22:23;;;;;;;0.50;0.50;;;;;;;23.58;75.11;99585.81;5052805;28;20220;-64
2023/05/19 08:24:50;;;;;;;0.47;0.47;;;;;;;23.77;74.18;99622.63;5053171;28;20212;-64
2023/05/19 08:27:17;;;;;;;0.73;0.73;;;;;;;23.63;73.76;99601.97;5051524;28;20236;-63
2023/05/19 08:29:44;;;;;;;0.40;0.40;;;;;;;23.93;78.28;99617.81;5050125;28;20669;-64
2023/05/19 08:32:10;;;;;;;0.50;0.50;;;;;;;24.12;75.98;99611.91;5049754;28;20264;-64
2023/05/19 08:34:40;;;;;;;0.40;0.40;;;;;;;24.01;73.18;99620.63;5051311;28;20810;-64
2023/05/19 08:37:08;;;;;;;0.30;0.30;;;;;;;24.11;74.76;99604.13;5047113;28;20247;-64
2023/05/19 08:39:35;;;;;;;0.50;0.50;;;;;;;24.04;74.40;99604.66;5050697;28;20208;-64
2023/05/19 08:42:02;;;;;;;0.30;0.30;;;;;;;24.16;75.21;99594.16;5048286;28;20312;-64
2023/05/19 08:44:29;;;;;;;0.40;0.40;;;;;;;24.15;72.46;99605.59;5050928;28;20197;-64
2023/05/19 08:47:00;;;;;;;0.93;0.93;;;;;;;24.24;72.99;99612.69;5051640;28;20647;-63
2023/05/19 08:49:28;;;;;;;0.40;0.40;;;;;;;24.40;73.65;99605.19;5051232;28;20208;-64
2023/05/19 08:52:01;;;;;;;0.50;0.50;;;;;;;24.68;74.83;99607.16;5051912;28;20200;-64
2023/05/19 08:54:37;;;;;;;0.40;0.40;;;;;;;24.87;74.10;99607.28;5051624;28;20350;-64
2023/05/19 08:57:04;;;;;;;0.40;0.40;;;;;;;25.16;73.37;99602.16;5050652;28;20223;-65
2023/05/19 08:59:32;;;;;;;0.60;0.60;;;;;;;25.30;72.46;99606.19;5051070;28;20215;-64
2023/05/19 09:01:59;;;;;;;0.70;0.70;;;;;;;25.35;70.68;99604.81;5051795;28;20254;-64
2023/05/19 09:04:27;;;;;;;0.50;0.50;;;;;;;25.30;70.86;99603.56;5051419;28;20204;-65
2023/05/19 09:06:54;;;;;;;0.40;0.40;;;;;;;25.34;74.67;99603.16;5050975;28;20197;-64
2023/05/19 09:09:21;;;;;;;0.30;0.30;;;;;;;25.57;69.00;99615.13;5051133;28;20200;-65
2023/05/19 09:11:49;;;;;;;0.40;0.40;;;;;;;25.70;68.29;99611.41;5049976;28;20188;-64
2023/05/19 09:14:16;;;;;;;0.70;0.70;;;;;;;25.94;66.41;99601.34;5051899;28;20672;-64
2023/05/19 09:16:48;;;;;;;0.80;0.80;;;;;;;26.16;64.26;99610.72;5051411;28;20201;-63
2023/05/19 09:19:15;;;;;;;0.40;0.40;;;;;;;26.20;65.00;99602.44;5050084;28;20204;-63
2023/05/19 09:21:44;;;;;;;0.30;0.30;;;;;;;26.32;60.02;99611.00;5051098;28;20588;-63
2023/05/19 09:24:11;;;;;;;0.23;0.23;;;;;;;25.96;57.07;99602.84;5051504;28;20664;-62
2023/05/19 09:26:39;;;;;;;0.20;0.20;;;;;;;26.02;66.71;99589.16;5050853;28;20204;-64
2023/05/19 09:29:13;;;;;;;0.20;0.20;;;;;;;26.11;65.14;99590.09;5051097;28;20212;-63
2023/05/19 09:31:40;;;;;;;0.50;0.50;;;;;;;26.28;67.57;99593.84;5051356;28;20193;-63
2023/05/19 09:34:13;;;;;;;0.67;0.60;;;;;;;26.40;60.16;99597.97;5051210;28;20415;-63
2023/05/19 09:36:41;;;;;;;0.30;0.30;;;;;;;26.66;60.69;99596.38;5051145;28;20196;-63
2023/05/19 09:39:13;;;;;;;0.27;0.27;;;;;;;26.87;64.07;99572.53;5051060;28;20247;-63
2023/05/19 09:41:40;;;;;;;0.27;0.27;;;;;;;27.08;67.43;99579.19;5049692;28;20221;-64
2023/05/19 09:44:07;;;;;;;0.30;0.30;;;;;;;27.24;66.60;99585.66;5050332;28;20209;-63
2023/05/19 09:46:36;;;;;;;0.50;0.50;;;;;;;27.47;58.21;99581.63;5050927;28;20287;-64
2023/05/19 09:49:09;;;;;;;0.50;0.50;;;;;;;27.57;62.24;99569.22;5050020;28;20909;-64
2023/05/19 09:51:36;;;;;;;0.30;0.30;;;;;;;27.63;60.85;99584.41;5049653;28;20733;-62
2023/05/19 09:54:04;;;;;;;0.20;0.20;;;;;;;27.71;66.41;99579.25;5050403;28;20197;-63
2023/05/19 09:56:34;;;;;;;0.70;0.40;;;;;;;27.64;60.32;99575.56;5049950;28;20292;-63
2023/05/19 09:59:01;;;;;;;0.73;0.73;;;;;;;27.45;65.53;99544.94;5049294;28;20263;-62
2023/05/19 10:01:29;;;;;;;0.30;0.30;;;;;;;27.72;66.05;99572.19;5048025;28;20207;-63
2023/05/19 10:03:57;;;;;;;0.20;0.20;;;;;;;27.88;61.51;99578.41;5048570;28;20695;-64
2023/05/19 10:06:24;;;;;;;0.50;0.50;;;;;;;27.98;56.11;99576.50;5047905;28;20670;-63
2023/05/19 10:08:53;;;;;;;0.53;0.53;;;;;;;27.67;53.86;99569.97;5048920;28;20270;-63
2023/05/19 10:11:22;;;;;;;0.50;0.50;;;;;;;27.79;50.68;99581.94;5049837;28;20688;-62
2023/05/19 10:13:51;;;;;;;0.40;0.40;;;;;;;27.41;53.27;99566.41;5049080;28;20196;-63
2023/05/19 10:16:21;;;;;;;0.20;0.20;;;;;;;27.40;55.80;99573.47;5047267;28;20197;-64
2023/05/19 10:18:51;;;;;;;0.20;0.20;;;;;;;27.44;58.29;99563.50;5046949;28;20628;-63
2023/05/19 10:21:19;;;;;;;1.13;1.13;;;;;;;27.52;60.71;99555.69;5050198;28;20258;-63
2023/05/19 10:23:46;;;;;;;0.40;0.40;;;;;;;27.64;60.02;99555.31;5052476;28;20281;-64
2023/05/19 10:26:14;;;;;;;0.40;0.40;;;;;;;27.84;56.64;99561.25;5048716;28;20197;-63
2023/05/19 10:28:44;;;;;;;0.77;0.77;;;;;;;27.53;52.50;99552.06;5053485;28;20669;-63
2023/05/19 10:31:17;;;;;;;0.30;0.30;;;;;;;27.45;58.37;99549.34;5054480;28;20200;-63
2023/05/19 10:33:59;;;;;;;0.37;0.37;;;;;;;27.39;56.31;99556.03;5054465;28;20254;-64
2023/05/19 10:36:43;;;;;;;0.60;0.60;;;;;;;27.34;54.71;99547.72;5053862;28;20631;-63
2023/05/19 10:39:16;;;;;;;0.40;0.40;;;;;;;27.41;57.03;99543.53;5049476;28;20204;-64
2023/05/19 10:41:50;;;;;;;2.27;0.57;;;;;;;27.16;58.77;99488.16;5052355;28;20288;-64
2023/05/19 10:44:28;;;;;;;0.50;0.50;;;;;;;27.21;56.38;99551.69;5055006;28;20204;-64
2023/05/19 10:46:55;;;;;;;0.43;0.43;;;;;;;27.00;57.97;99550.16;5053408;28;20238;-64
2023/05/19 10:49:22;;;;;;;0.40;0.40;;;;;;;26.98;56.49;99552.09;5053498;28;20205;-63
2023/05/19 10:51:52;;;;;;;0.20;0.20;;;;;;;26.94;54.63;99561.28;5053768;28;20705;-65
2023/05/19 10:54:42;;;;;;;0.30;0.30;;;;;;;26.76;54.10;99562.97;5053985;28;20212;-65
2023/05/19 10:57:09;;;;;;;0.70;0.70;;;;;;;26.67;52.28;99569.09;5054029;28;20732;-64
2023/05/19 10:59:38;;;;;;;0.30;0.30;;;;;;;26.33;53.54;99571.44;5053539;28;20628;-64
2023/05/19 11:02:05;;;;;;;0.33;0.33;;;;;;;26.28;54.77;99572.81;5052657;28;20224;-64
2023/05/19 11:04:47;;;;;;;0.80;0.80;;;;;;;26.23;54.45;99565.38;5053499;28;20626;-64
2023/05/19 11:07:18;;;;;;;0.30;0.30;;;;;;;26.27;56.83;99550.16;5051333;28;20292;-64
2023/05/19 11:09:50;;;;;;;0.60;0.60;;;;;;;26.28;55.97;99557.03;5052519;28;20283;-64
2023/05/19 11:12:20;;;;;;;0.50;0.50;;;;;;;26.36;59.18;99559.81;5051046;28;20310;-63
2023/05/19 11:14:47;;;;;;;0.30;0.30;;;;;;;26.30;55.24;99558.56;5049293;28;20702;-65
2023/05/19 11:17:15;;;;;;;0.43;0.43;;;;;;;26.37;58.74;99540.41;5052371;28;20274;-64
2023/05/19 11:19:52;;;;;;;0.30;0.30;;;;;;;26.36;54.73;99538.78;5052517;28;20193;-64
2023/05/19 11:22:23;;;;;;;1.80;0.43;;;;;;;26.29;53.09;99543.78;5050156;28;20277;-63
2023/05/19 11:24:51;;;;;;;0.33;0.33;;;;;;;26.38;58.45;99547.34;5052505;28;20209;-64
2023/05/19 11:27:26;;;;;;;0.40;0.40;;;;;;;26.63;59.26;99547.53;5052942;28;20239;-63
2023/05/19 11:29:55;;;;;;;0.93;0.93;;;;;;;26.78;53.73;99534.75;5051540;28;20291;-62
2023/05/19 11:32:27;;;;;;;0.30;0.30;;;;;;;26.74;55.73;99541.25;5052186;28;20209;-63
2023/05/19 11:34:55;;;;;;;0.40;0.40;;;;;;;26.76;51.79;99536.69;5052880;28;20266;-64